sensor_id;sensor_type;location;lat;lon;timestamp;P1;P2;P0
50589;PMS7003;36547;50.514;30.840;2024-02-21T00:00:10;10.50;10.50;7.30
50589;PMS7003;36547;50.514;30.840;2024-02-21T00:01:21;16.90;15.60;10.80
50589;PMS7003;36547;50.514;30.840;2024-02-21T00:02:29;12.70;12.70;9.00
50589;PMS7003;36547;50.514;30.840;2024-02-21T00:03:35;14.30;14.30;10.30
50589;PMS7003;36547;50.514;30.840;2024-02-21T00:04:44;13.90;13.90;10.00
50589;PMS7003;36547;50.514;30.840;2024-02-21T00:05:51;15.50;14.70;11.20
50589;PMS7003;36547;50.514;30.840;2024-02-21T00:06:58;15.60;14.80;10.80
50589;PMS7003;36547;50.514;30.840;2024-02-21T00:08:03;14.80;14.80;8.70
50589;PMS7003;36547;50.514;30.840;2024-02-21T00:09:08;16.80;15.10;9.90
50589;PMS7003;36547;50.514;30.840;2024-02-21T00:10:13;17.00;16.50;10.80
50589;PMS7003;36547;50.514;30.840;2024-02-21T00:11:17;8.50;8.50;7.20
50589;PMS7003;36547;50.514;30.840;2024-02-21T00:12:24;13.80;13.70;10.50
50589;PMS7003;36547;50.514;30.840;2024-02-21T00:13:35;12.90;12.20;8.30
50589;PMS7003;36547;50.514;30.840;2024-02-21T00:14:41;18.50;18.50;11.20
50589;PMS7003;36547;50.514;30.840;2024-02-21T00:15:48;13.70;13.70;9.70
50589;PMS7003;36547;50.514;30.840;2024-02-21T00:16:53;15.10;14.50;10.00
50589;PMS7003;36547;50.514;30.840;2024-02-21T00:17:59;20.00;20.00;12.30
50589;PMS7003;36547;50.514;30.840;2024-02-21T00:19:09;19.10;17.90;11.90
50589;PMS7003;36547;50.514;30.840;2024-02-21T00:20:15;17.50;15.10;7.40
50589;PMS7003;36547;50.514;30.840;2024-02-21T00:21:41;14.20;14.20;9.80
50589;PMS7003;36547;50.514;30.840;2024-02-21T00:22:49;19.40;18.40;11.20
50589;PMS7003;36547;50.514;30.840;2024-02-21T00:23:56;14.30;13.90;9.30
50589;PMS7003;36547;50.514;30.840;2024-02-21T00:25:00;15.50;15.20;10.20
50589;PMS7003;36547;50.514;30.840;2024-02-21T00:26:03;18.00;16.55;12.09
50589;PMS7003;36547;50.514;30.840;2024-02-21T00:27:10;17.30;17.30;11.50
50589;PMS7003;36547;50.514;30.840;2024-02-21T00:28:18;15.20;15.00;10.40
50589;PMS7003;36547;50.514;30.840;2024-02-21T00:29:21;14.70;14.20;9.90
50589;PMS7003;36547;50.514;30.840;2024-02-21T00:30:24;16.20;15.70;11.10
50589;PMS7003;36547;50.514;30.840;2024-02-21T00:31:29;16.70;16.00;10.70
50589;PMS7003;36547;50.514;30.840;2024-02-21T00:32:37;17.70;16.30;10.10
50589;PMS7003;36547;50.514;30.840;2024-02-21T00:33:42;18.20;17.20;12.10
50589;PMS7003;36547;50.514;30.840;2024-02-21T00:34:55;21.36;17.73;12.64
50589;PMS7003;36547;50.514;30.840;2024-02-21T00:36:07;15.90;15.90;11.10
50589;PMS7003;36547;50.514;30.840;2024-02-21T00:37:13;16.50;15.90;10.00
50589;PMS7003;36547;50.514;30.840;2024-02-21T00:38:20;16.30;15.00;9.90
50589;PMS7003;36547;50.514;30.840;2024-02-21T00:39:25;16.90;15.60;10.00
50589;PMS7003;36547;50.514;30.840;2024-02-21T00:40:31;19.00;18.40;10.80
50589;PMS7003;36547;50.514;30.840;2024-02-21T00:41:42;15.10;14.30;9.90
50589;PMS7003;36547;50.514;30.840;2024-02-21T00:42:47;22.00;20.70;12.80
50589;PMS7003;36547;50.514;30.840;2024-02-21T00:43:53;16.60;16.60;11.30
50589;PMS7003;36547;50.514;30.840;2024-02-21T00:45:15;15.70;14.90;11.20
50589;PMS7003;36547;50.514;30.840;2024-02-21T00:46:24;17.60;16.70;10.70
50589;PMS7003;36547;50.514;30.840;2024-02-21T00:47:37;17.00;16.40;11.40
50589;PMS7003;36547;50.514;30.840;2024-02-21T00:48:41;18.50;18.00;12.30
50589;PMS7003;36547;50.514;30.840;2024-02-21T00:49:56;16.10;15.80;10.50
50589;PMS7003;36547;50.514;30.840;2024-02-21T00:51:06;14.60;14.60;10.10
50589;PMS7003;36547;50.514;30.840;2024-02-21T00:52:08;20.10;18.70;11.80
50589;PMS7003;36547;50.514;30.840;2024-02-21T00:53:16;18.20;17.80;12.70
50589;PMS7003;36547;50.514;30.840;2024-02-21T00:54:20;19.60;18.30;12.00
50589;PMS7003;36547;50.514;30.840;2024-02-21T00:55:25;18.90;18.10;13.00
50589;PMS7003;36547;50.514;30.840;2024-02-21T00:56:36;18.80;18.80;12.90
50589;PMS7003;36547;50.514;30.840;2024-02-21T00:57:40;19.60;19.60;13.40
50589;PMS7003;36547;50.514;30.840;2024-02-21T00:58:42;19.70;19.20;12.20
50589;PMS7003;36547;50.514;30.840;2024-02-21T00:59:47;19.80;19.20;13.50
50589;PMS7003;36547;50.514;30.840;2024-02-21T01:00:51;5.40;4.60;3.50
50589;PMS7003;36547;50.514;30.840;2024-02-21T01:01:56;21.30;20.40;13.40
50589;PMS7003;36547;50.514;30.840;2024-02-21T01:03:03;21.40;21.40;13.60
50589;PMS7003;36547;50.514;30.840;2024-02-21T01:04:16;17.90;17.10;12.40
50589;PMS7003;36547;50.514;30.840;2024-02-21T01:05:21;19.80;19.60;12.50
50589;PMS7003;36547;50.514;30.840;2024-02-21T01:06:27;17.50;17.10;12.30
50589;PMS7003;36547;50.514;30.840;2024-02-21T01:07:31;17.40;17.20;12.80
50589;PMS7003;36547;50.514;30.840;2024-02-21T01:08:35;18.40;17.70;12.60
50589;PMS7003;36547;50.514;30.840;2024-02-21T01:09:38;21.82;21.82;14.91
50589;PMS7003;36547;50.514;30.840;2024-02-21T01:10:42;11.20;9.50;3.50
50589;PMS7003;36547;50.514;30.840;2024-02-21T01:11:50;19.30;18.70;12.80
50589;PMS7003;36547;50.514;30.840;2024-02-21T01:12:56;18.70;18.20;11.90
50589;PMS7003;36547;50.514;30.840;2024-02-21T01:13:59;20.18;19.91;11.82
50589;PMS7003;36547;50.514;30.840;2024-02-21T01:15:11;22.40;20.10;13.60
50589;PMS7003;36547;50.514;30.840;2024-02-21T01:16:15;19.30;19.20;12.90
50589;PMS7003;36547;50.514;30.840;2024-02-21T01:17:27;18.00;18.00;11.20
50589;PMS7003;36547;50.514;30.840;2024-02-21T01:18:40;19.70;17.80;10.80
50589;PMS7003;36547;50.514;30.840;2024-02-21T01:20:06;17.80;17.60;10.50
50589;PMS7003;36547;50.514;30.840;2024-02-21T01:21:11;14.10;12.90;8.10
50589;PMS7003;36547;50.514;30.840;2024-02-21T01:22:15;18.40;17.30;10.90
50589;PMS7003;36547;50.514;30.840;2024-02-21T01:23:30;15.70;14.80;11.30
50589;PMS7003;36547;50.514;30.840;2024-02-21T01:24:37;20.60;20.10;12.70
50589;PMS7003;36547;50.514;30.840;2024-02-21T01:25:45;20.80;18.90;12.80
50589;PMS7003;36547;50.514;30.840;2024-02-21T01:26:49;19.60;19.50;14.00
50589;PMS7003;36547;50.514;30.840;2024-02-21T01:27:57;19.10;18.30;12.40
50589;PMS7003;36547;50.514;30.840;2024-02-21T01:29:06;20.30;18.80;11.50
50589;PMS7003;36547;50.514;30.840;2024-02-21T01:30:16;18.90;18.70;13.00
50589;PMS7003;36547;50.514;30.840;2024-02-21T01:31:20;21.70;19.60;12.90
50589;PMS7003;36547;50.514;30.840;2024-02-21T01:32:31;21.00;21.00;13.20
50589;PMS7003;36547;50.514;30.840;2024-02-21T01:33:38;17.90;17.40;11.00
50589;PMS7003;36547;50.514;30.840;2024-02-21T01:34:42;21.90;21.60;12.90
50589;PMS7003;36547;50.514;30.840;2024-02-21T01:35:48;20.70;20.10;12.80
50589;PMS7003;36547;50.514;30.840;2024-02-21T01:36:54;20.50;20.20;12.50
50589;PMS7003;36547;50.514;30.840;2024-02-21T01:38:03;23.70;22.20;13.40
50589;PMS7003;36547;50.514;30.840;2024-02-21T01:39:05;25.50;23.10;14.40
50589;PMS7003;36547;50.514;30.840;2024-02-21T01:40:17;22.20;21.20;13.00
50589;PMS7003;36547;50.514;30.840;2024-02-21T01:41:26;23.80;23.80;15.30
50589;PMS7003;36547;50.514;30.840;2024-02-21T01:42:33;18.40;17.30;11.50
50589;PMS7003;36547;50.514;30.840;2024-02-21T01:43:39;23.60;22.50;14.30
50589;PMS7003;36547;50.514;30.840;2024-02-21T01:44:45;22.70;21.60;14.00
50589;PMS7003;36547;50.514;30.840;2024-02-21T01:46:02;25.40;24.30;14.40
50589;PMS7003;36547;50.514;30.840;2024-02-21T01:47:08;21.40;21.10;15.30
50589;PMS7003;36547;50.514;30.840;2024-02-21T01:48:17;21.80;21.20;13.80
50589;PMS7003;36547;50.514;30.840;2024-02-21T01:49:23;23.90;23.30;15.80
50589;PMS7003;36547;50.514;30.840;2024-02-21T01:50:29;22.30;21.20;14.40
50589;PMS7003;36547;50.514;30.840;2024-02-21T01:51:36;24.60;22.20;14.00
50589;PMS7003;36547;50.514;30.840;2024-02-21T01:52:44;25.40;23.90;13.30
50589;PMS7003;36547;50.514;30.840;2024-02-21T01:54:06;22.40;21.20;13.30
50589;PMS7003;36547;50.514;30.840;2024-02-21T01:55:12;27.80;26.00;16.20
50589;PMS7003;36547;50.514;30.840;2024-02-21T01:56:19;22.60;22.20;14.70
50589;PMS7003;36547;50.514;30.840;2024-02-21T01:57:28;22.40;20.30;14.90
50589;PMS7003;36547;50.514;30.840;2024-02-21T01:58:36;23.40;23.30;16.00
50589;PMS7003;36547;50.514;30.840;2024-02-21T01:59:58;16.10;14.60;6.80
50589;PMS7003;36547;50.514;30.840;2024-02-21T02:01:07;21.90;19.50;13.30
50589;PMS7003;36547;50.514;30.840;2024-02-21T02:02:13;23.80;21.80;13.90
50589;PMS7003;36547;50.514;30.840;2024-02-21T02:03:17;25.20;23.50;14.00
50589;PMS7003;36547;50.514;30.840;2024-02-21T02:04:29;19.00;18.80;12.80
50589;PMS7003;36547;50.514;30.840;2024-02-21T02:05:35;24.00;21.60;13.70
50589;PMS7003;36547;50.514;30.840;2024-02-21T02:06:43;21.60;20.90;13.30
50589;PMS7003;36547;50.514;30.840;2024-02-21T02:07:49;22.60;21.60;13.70
50589;PMS7003;36547;50.514;30.840;2024-02-21T02:08:55;25.00;23.30;14.80
50589;PMS7003;36547;50.514;30.840;2024-02-21T02:10:04;21.40;19.40;12.80
50589;PMS7003;36547;50.514;30.840;2024-02-21T02:11:09;23.80;21.80;15.70
50589;PMS7003;36547;50.514;30.840;2024-02-21T02:12:16;24.80;24.40;14.70
50589;PMS7003;36547;50.514;30.840;2024-02-21T02:13:22;25.40;25.40;17.30
50589;PMS7003;36547;50.514;30.840;2024-02-21T02:14:28;27.60;26.40;16.20
50589;PMS7003;36547;50.514;30.840;2024-02-21T02:16:48;22.30;21.20;13.20
50589;PMS7003;36547;50.514;30.840;2024-02-21T02:17:54;25.30;24.50;14.10
50589;PMS7003;36547;50.514;30.840;2024-02-21T02:19:00;23.50;22.30;14.60
50589;PMS7003;36547;50.514;30.840;2024-02-21T02:20:04;30.60;27.70;15.20
50589;PMS7003;36547;50.514;30.840;2024-02-21T02:21:13;24.50;23.00;15.00
50589;PMS7003;36547;50.514;30.840;2024-02-21T02:22:20;26.90;26.30;14.60
50589;PMS7003;36547;50.514;30.840;2024-02-21T02:23:30;23.80;22.50;15.60
50589;PMS7003;36547;50.514;30.840;2024-02-21T02:24:35;22.60;20.70;12.90
50589;PMS7003;36547;50.514;30.840;2024-02-21T02:25:40;28.80;24.40;14.40
50589;PMS7003;36547;50.514;30.840;2024-02-21T02:26:44;26.60;24.70;15.10
50589;PMS7003;36547;50.514;30.840;2024-02-21T02:27:51;24.90;22.70;16.00
50589;PMS7003;36547;50.514;30.840;2024-02-21T02:29:01;26.50;22.40;13.10
50589;PMS7003;36547;50.514;30.840;2024-02-21T02:30:09;24.00;24.00;16.20
50589;PMS7003;36547;50.514;30.840;2024-02-21T02:31:20;22.30;22.20;14.50
50589;PMS7003;36547;50.514;30.840;2024-02-21T02:32:27;23.70;22.40;14.00
50589;PMS7003;36547;50.514;30.840;2024-02-21T02:33:36;26.20;24.50;15.60
50589;PMS7003;36547;50.514;30.840;2024-02-21T02:34:42;24.60;22.30;14.10
50589;PMS7003;36547;50.514;30.840;2024-02-21T02:36:01;21.10;20.60;13.20
50589;PMS7003;36547;50.514;30.840;2024-02-21T02:37:06;23.80;23.40;14.00
50589;PMS7003;36547;50.514;30.840;2024-02-21T02:38:16;20.10;19.40;13.10
50589;PMS7003;36547;50.514;30.840;2024-02-21T02:39:21;24.00;21.20;13.10
50589;PMS7003;36547;50.514;30.840;2024-02-21T02:40:28;22.50;21.50;12.80
50589;PMS7003;36547;50.514;30.840;2024-02-21T02:41:38;26.00;23.40;15.30
50589;PMS7003;36547;50.514;30.840;2024-02-21T02:42:45;22.40;21.90;14.10
50589;PMS7003;36547;50.514;30.840;2024-02-21T02:43:48;22.60;22.60;13.10
50589;PMS7003;36547;50.514;30.840;2024-02-21T02:44:53;20.60;20.60;13.00
50589;PMS7003;36547;50.514;30.840;2024-02-21T02:45:59;11.10;9.60;3.30
50589;PMS7003;36547;50.514;30.840;2024-02-21T02:47:10;20.80;20.80;13.90
50589;PMS7003;36547;50.514;30.840;2024-02-21T02:48:14;19.90;19.00;12.80
50589;PMS7003;36547;50.514;30.840;2024-02-21T02:49:18;23.50;20.90;12.70
50589;PMS7003;36547;50.514;30.840;2024-02-21T02:50:21;19.90;18.40;13.30
50589;PMS7003;36547;50.514;30.840;2024-02-21T02:51:31;20.90;20.20;13.70
50589;PMS7003;36547;50.514;30.840;2024-02-21T02:52:39;22.60;20.70;13.00
50589;PMS7003;36547;50.514;30.840;2024-02-21T02:53:48;23.90;23.50;14.70
50589;PMS7003;36547;50.514;30.840;2024-02-21T02:55:13;18.40;17.30;10.60
50589;PMS7003;36547;50.514;30.840;2024-02-21T02:56:22;20.80;20.50;13.20
50589;PMS7003;36547;50.514;30.840;2024-02-21T02:57:28;20.50;20.30;11.50
50589;PMS7003;36547;50.514;30.840;2024-02-21T02:58:40;18.90;18.40;12.30
50589;PMS7003;36547;50.514;30.840;2024-02-21T02:59:52;17.80;17.10;12.30
50589;PMS7003;36547;50.514;30.840;2024-02-21T03:00:56;21.30;19.80;12.00
50589;PMS7003;36547;50.514;30.840;2024-02-21T03:02:02;18.00;17.90;12.20
50589;PMS7003;36547;50.514;30.840;2024-02-21T03:03:05;22.80;20.10;13.20
50589;PMS7003;36547;50.514;30.840;2024-02-21T03:04:11;19.40;19.00;13.30
50589;PMS7003;36547;50.514;30.840;2024-02-21T03:05:19;21.70;21.10;13.50
50589;PMS7003;36547;50.514;30.840;2024-02-21T03:06:24;18.50;18.50;13.00
50589;PMS7003;36547;50.514;30.840;2024-02-21T03:07:31;22.60;22.50;14.30
50589;PMS7003;36547;50.514;30.840;2024-02-21T03:08:48;24.00;21.10;14.80
50589;PMS7003;36547;50.514;30.840;2024-02-21T03:09:54;25.80;24.10;15.10
50589;PMS7003;36547;50.514;30.840;2024-02-21T03:10:59;22.90;22.90;13.10
50589;PMS7003;36547;50.514;30.840;2024-02-21T03:12:05;21.60;19.90;13.40
50589;PMS7003;36547;50.514;30.840;2024-02-21T03:13:09;22.00;21.80;13.90
50589;PMS7003;36547;50.514;30.840;2024-02-21T03:14:16;20.50;20.50;13.00
50589;PMS7003;36547;50.514;30.840;2024-02-21T03:15:23;17.70;16.30;11.00
50589;PMS7003;36547;50.514;30.840;2024-02-21T03:16:32;17.80;17.80;10.80
50589;PMS7003;36547;50.514;30.840;2024-02-21T03:17:40;19.00;18.40;11.60
50589;PMS7003;36547;50.514;30.840;2024-02-21T03:18:50;17.70;16.90;11.50
50589;PMS7003;36547;50.514;30.840;2024-02-21T03:19:56;18.40;18.40;12.40
50589;PMS7003;36547;50.514;30.840;2024-02-21T03:21:02;21.30;18.80;12.00
50589;PMS7003;36547;50.514;30.840;2024-02-21T03:22:12;16.50;15.50;12.00
50589;PMS7003;36547;50.514;30.840;2024-02-21T03:23:19;21.60;20.20;12.30
50589;PMS7003;36547;50.514;30.840;2024-02-21T03:24:23;17.70;17.50;13.30
50589;PMS7003;36547;50.514;30.840;2024-02-21T03:25:44;18.30;18.10;12.80
50589;PMS7003;36547;50.514;30.840;2024-02-21T03:26:51;20.90;17.60;12.30
50589;PMS7003;36547;50.514;30.840;2024-02-21T03:27:58;21.20;20.90;13.30
50589;PMS7003;36547;50.514;30.840;2024-02-21T03:29:10;18.50;18.20;12.60
50589;PMS7003;36547;50.514;30.840;2024-02-21T03:30:18;20.90;19.20;12.00
50589;PMS7003;36547;50.514;30.840;2024-02-21T03:31:22;21.50;19.30;12.50
50589;PMS7003;36547;50.514;30.840;2024-02-21T03:32:27;18.80;18.30;12.90
50589;PMS7003;36547;50.514;30.840;2024-02-21T03:33:49;20.50;19.80;13.60
50589;PMS7003;36547;50.514;30.840;2024-02-21T03:35:09;17.20;17.20;11.20
50589;PMS7003;36547;50.514;30.840;2024-02-21T03:36:15;25.30;24.50;14.80
50589;PMS7003;36547;50.514;30.840;2024-02-21T03:37:22;18.70;18.50;11.90
50589;PMS7003;36547;50.514;30.840;2024-02-21T03:38:32;19.30;19.30;13.10
50589;PMS7003;36547;50.514;30.840;2024-02-21T03:39:36;20.40;20.00;12.70
50589;PMS7003;36547;50.514;30.840;2024-02-21T03:40:44;21.80;20.30;12.30
50589;PMS7003;36547;50.514;30.840;2024-02-21T03:42:03;21.00;19.30;11.80
50589;PMS7003;36547;50.514;30.840;2024-02-21T03:43:08;17.60;16.30;10.00
50589;PMS7003;36547;50.514;30.840;2024-02-21T03:44:16;22.30;22.30;13.70
50589;PMS7003;36547;50.514;30.840;2024-02-21T03:45:23;22.00;19.20;11.90
50589;PMS7003;36547;50.514;30.840;2024-02-21T03:46:30;26.00;24.00;14.10
50589;PMS7003;36547;50.514;30.840;2024-02-21T03:47:35;25.60;23.60;14.00
50589;PMS7003;36547;50.514;30.840;2024-02-21T03:48:39;23.50;22.80;14.70
50589;PMS7003;36547;50.514;30.840;2024-02-21T03:49:45;24.70;22.70;14.10
50589;PMS7003;36547;50.514;30.840;2024-02-21T03:50:50;21.70;21.70;14.80
50589;PMS7003;36547;50.514;30.840;2024-02-21T03:51:55;25.60;24.90;15.40
50589;PMS7003;36547;50.514;30.840;2024-02-21T03:52:58;23.20;22.70;16.40
50589;PMS7003;36547;50.514;30.840;2024-02-21T03:54:03;24.20;22.40;14.40
50589;PMS7003;36547;50.514;30.840;2024-02-21T03:55:07;20.20;19.20;13.90
50589;PMS7003;36547;50.514;30.840;2024-02-21T03:56:13;20.00;20.00;14.40
50589;PMS7003;36547;50.514;30.840;2024-02-21T03:57:17;22.60;22.10;14.50
50589;PMS7003;36547;50.514;30.840;2024-02-21T03:58:22;23.30;22.00;14.70
50589;PMS7003;36547;50.514;30.840;2024-02-21T03:59:27;24.20;21.20;14.90
50589;PMS7003;36547;50.514;30.840;2024-02-21T04:00:35;24.80;24.00;15.00
50589;PMS7003;36547;50.514;30.840;2024-02-21T04:01:44;22.80;19.70;13.80
50589;PMS7003;36547;50.514;30.840;2024-02-21T04:02:54;22.40;22.20;13.60
50589;PMS7003;36547;50.514;30.840;2024-02-21T04:03:59;29.20;26.30;14.70
50589;PMS7003;36547;50.514;30.840;2024-02-21T04:05:03;24.90;23.80;14.40
50589;PMS7003;36547;50.514;30.840;2024-02-21T04:06:08;20.80;20.10;13.70
50589;PMS7003;36547;50.514;30.840;2024-02-21T04:07:11;25.20;23.80;14.30
50589;PMS7003;36547;50.514;30.840;2024-02-21T04:08:19;23.50;21.70;14.60
50589;PMS7003;36547;50.514;30.840;2024-02-21T04:09:44;21.20;19.10;11.50
50589;PMS7003;36547;50.514;30.840;2024-02-21T04:10:49;24.50;22.20;13.40
50589;PMS7003;36547;50.514;30.840;2024-02-21T04:11:56;23.60;22.00;14.20
50589;PMS7003;36547;50.514;30.840;2024-02-21T04:13:00;21.80;21.80;14.70
50589;PMS7003;36547;50.514;30.840;2024-02-21T04:14:06;23.50;21.80;14.70
50589;PMS7003;36547;50.514;30.840;2024-02-21T04:15:15;20.50;20.00;13.50
50589;PMS7003;36547;50.514;30.840;2024-02-21T04:16:17;21.30;20.50;13.20
50589;PMS7003;36547;50.514;30.840;2024-02-21T04:17:29;20.30;19.00;12.50
50589;PMS7003;36547;50.514;30.840;2024-02-21T04:18:35;23.30;20.40;13.60
50589;PMS7003;36547;50.514;30.840;2024-02-21T04:19:43;23.90;22.60;14.50
50589;PMS7003;36547;50.514;30.840;2024-02-21T04:20:51;23.00;22.30;15.40
50589;PMS7003;36547;50.514;30.840;2024-02-21T04:21:55;27.20;25.10;14.50
50589;PMS7003;36547;50.514;30.840;2024-02-21T04:23:00;26.40;24.00;15.30
50589;PMS7003;36547;50.514;30.840;2024-02-21T04:24:14;27.60;25.50;16.00
50589;PMS7003;36547;50.514;30.840;2024-02-21T04:25:27;26.60;25.50;15.10
50589;PMS7003;36547;50.514;30.840;2024-02-21T04:26:31;31.40;28.20;18.20
50589;PMS7003;36547;50.514;30.840;2024-02-21T04:27:35;29.80;26.80;16.20
50589;PMS7003;36547;50.514;30.840;2024-02-21T04:28:39;26.27;25.64;15.73
50589;PMS7003;36547;50.514;30.840;2024-02-21T04:29:50;29.60;27.70;16.70
50589;PMS7003;36547;50.514;30.840;2024-02-21T04:30:53;22.10;20.50;14.60
50589;PMS7003;36547;50.514;30.840;2024-02-21T04:32:02;28.10;26.60;17.70
50589;PMS7003;36547;50.514;30.840;2024-02-21T04:33:19;20.50;15.80;4.70
50589;PMS7003;36547;50.514;30.840;2024-02-21T04:34:21;30.80;26.60;17.90
50589;PMS7003;36547;50.514;30.840;2024-02-21T04:35:23;29.80;27.70;17.90
50589;PMS7003;36547;50.514;30.840;2024-02-21T04:36:26;29.60;28.40;19.70
50589;PMS7003;36547;50.514;30.840;2024-02-21T04:37:28;28.20;27.20;17.70
50589;PMS7003;36547;50.514;30.840;2024-02-21T04:38:31;27.70;26.50;19.10
50589;PMS7003;36547;50.514;30.840;2024-02-21T04:39:33;30.10;27.40;17.70
50589;PMS7003;36547;50.514;30.840;2024-02-21T04:40:36;33.30;30.70;18.20
50589;PMS7003;36547;50.514;30.840;2024-02-21T04:41:38;31.80;30.40;20.50
50589;PMS7003;36547;50.514;30.840;2024-02-21T04:42:41;29.40;28.70;19.00
50589;PMS7003;36547;50.514;30.840;2024-02-21T04:43:43;37.40;33.50;21.80
50589;PMS7003;36547;50.514;30.840;2024-02-21T04:44:48;36.30;34.10;21.50
50589;PMS7003;36547;50.514;30.840;2024-02-21T04:45:50;41.50;37.00;22.70
50589;PMS7003;36547;50.514;30.840;2024-02-21T04:46:52;39.50;36.40;22.70
50589;PMS7003;36547;50.514;30.840;2024-02-21T04:47:54;43.50;38.00;22.40
50589;PMS7003;36547;50.514;30.840;2024-02-21T04:48:56;41.60;36.30;23.90
50589;PMS7003;36547;50.514;30.840;2024-02-21T04:49:59;49.30;39.00;23.70
50589;PMS7003;36547;50.514;30.840;2024-02-21T04:51:01;50.10;40.60;25.80
50589;PMS7003;36547;50.514;30.840;2024-02-21T04:52:04;47.90;42.40;26.20
50589;PMS7003;36547;50.514;30.840;2024-02-21T04:53:06;46.30;40.70;24.00
50589;PMS7003;36547;50.514;30.840;2024-02-21T04:54:09;40.00;36.90;23.40
50589;PMS7003;36547;50.514;30.840;2024-02-21T04:55:11;44.10;39.20;24.40
50589;PMS7003;36547;50.514;30.840;2024-02-21T04:56:14;44.40;40.10;24.60
50589;PMS7003;36547;50.514;30.840;2024-02-21T04:57:16;46.22;39.56;23.56
50589;PMS7003;36547;50.514;30.840;2024-02-21T04:58:18;43.80;39.80;24.20
50589;PMS7003;36547;50.514;30.840;2024-02-21T04:59:21;41.10;38.10;23.40
50589;PMS7003;36547;50.514;30.840;2024-02-21T05:00:23;41.70;35.80;22.70
50589;PMS7003;36547;50.514;30.840;2024-02-21T05:01:27;45.30;39.90;23.80
50589;PMS7003;36547;50.514;30.840;2024-02-21T05:02:30;43.00;37.60;22.10
50589;PMS7003;36547;50.514;30.840;2024-02-21T05:03:32;42.20;37.30;23.80
50589;PMS7003;36547;50.514;30.840;2024-02-21T05:04:35;40.20;36.70;23.30
50589;PMS7003;36547;50.514;30.840;2024-02-21T05:05:37;40.00;36.20;22.80
50589;PMS7003;36547;50.514;30.840;2024-02-21T05:06:41;35.00;34.30;22.50
50589;PMS7003;36547;50.514;30.840;2024-02-21T05:07:43;38.80;33.10;21.90
50589;PMS7003;36547;50.514;30.840;2024-02-21T05:08:45;41.30;37.50;23.80
50589;PMS7003;36547;50.514;30.840;2024-02-21T05:09:48;40.20;36.20;23.50
50589;PMS7003;36547;50.514;30.840;2024-02-21T05:10:51;36.00;34.40;20.80
50589;PMS7003;36547;50.514;30.840;2024-02-21T05:11:56;46.80;38.70;24.90
50589;PMS7003;36547;50.514;30.840;2024-02-21T05:12:58;43.50;34.80;21.90
50589;PMS7003;36547;50.514;30.840;2024-02-21T05:14:01;43.30;37.70;23.90
50589;PMS7003;36547;50.514;30.840;2024-02-21T05:15:04;36.00;34.90;22.10
50589;PMS7003;36547;50.514;30.840;2024-02-21T05:16:07;37.90;35.50;23.50
50589;PMS7003;36547;50.514;30.840;2024-02-21T05:17:10;41.00;35.40;23.90
50589;PMS7003;36547;50.514;30.840;2024-02-21T05:18:13;45.70;39.30;23.40
50589;PMS7003;36547;50.514;30.840;2024-02-21T05:19:15;43.10;38.70;24.10
50589;PMS7003;36547;50.514;30.840;2024-02-21T05:20:18;42.10;38.80;23.90
50589;PMS7003;36547;50.514;30.840;2024-02-21T05:21:21;16.20;14.90;1.10
50589;PMS7003;36547;50.514;30.840;2024-02-21T05:22:23;49.67;42.11;26.22
50589;PMS7003;36547;50.514;30.840;2024-02-21T05:23:25;45.11;40.33;26.44
50589;PMS7003;36547;50.514;30.840;2024-02-21T05:24:27;48.70;40.50;25.80
50589;PMS7003;36547;50.514;30.840;2024-02-21T05:25:31;46.40;38.90;25.50
50589;PMS7003;36547;50.514;30.840;2024-02-21T05:26:34;47.20;41.10;26.40
50589;PMS7003;36547;50.514;30.840;2024-02-21T05:27:36;44.33;39.11;25.78
50589;PMS7003;36547;50.514;30.840;2024-02-21T05:28:39;45.40;39.50;25.50
50589;PMS7003;36547;50.514;30.840;2024-02-21T05:29:41;40.89;37.44;25.33
50589;PMS7003;36547;50.514;30.840;2024-02-21T05:30:44;44.30;38.80;24.70
50589;PMS7003;36547;50.514;30.840;2024-02-21T05:32:58;45.60;38.80;22.90
50589;PMS7003;36547;50.514;30.840;2024-02-21T05:34:00;47.50;40.10;26.60
50589;PMS7003;36547;50.514;30.840;2024-02-21T05:35:04;47.90;39.40;24.50
50589;PMS7003;36547;50.514;30.840;2024-02-21T05:36:07;44.00;37.82;24.00
50589;PMS7003;36547;50.514;30.840;2024-02-21T05:37:09;46.00;36.80;24.30
50589;PMS7003;36547;50.514;30.840;2024-02-21T05:38:12;12.80;11.00;1.90
50589;PMS7003;36547;50.514;30.840;2024-02-21T05:39:15;40.40;37.30;24.00
50589;PMS7003;36547;50.514;30.840;2024-02-21T05:40:17;40.70;37.80;25.80
50589;PMS7003;36547;50.514;30.840;2024-02-21T05:41:20;41.60;37.70;24.50
50589;PMS7003;36547;50.514;30.840;2024-02-21T05:42:22;40.67;36.67;24.00
50589;PMS7003;36547;50.514;30.840;2024-02-21T05:43:24;48.90;40.70;24.40
50589;PMS7003;36547;50.514;30.840;2024-02-21T05:44:27;38.80;36.40;24.50
50589;PMS7003;36547;50.514;30.840;2024-02-21T05:45:30;46.18;39.64;25.27
50589;PMS7003;36547;50.514;30.840;2024-02-21T05:46:32;35.90;32.90;19.30
50589;PMS7003;36547;50.514;30.840;2024-02-21T05:47:35;39.90;35.90;23.80
50589;PMS7003;36547;50.514;30.840;2024-02-21T05:48:37;43.10;38.70;24.50
50589;PMS7003;36547;50.514;30.840;2024-02-21T05:49:41;43.40;37.70;23.30
50589;PMS7003;36547;50.514;30.840;2024-02-21T05:50:44;24.30;23.70;9.50
50589;PMS7003;36547;50.514;30.840;2024-02-21T05:51:47;35.80;35.20;22.90
50589;PMS7003;36547;50.514;30.840;2024-02-21T05:54:09;40.40;36.30;25.10
50589;PMS7003;36547;50.514;30.840;2024-02-21T05:55:11;46.70;39.70;25.40
50589;PMS7003;36547;50.514;30.840;2024-02-21T05:56:14;50.00;41.00;24.40
50589;PMS7003;36547;50.514;30.840;2024-02-21T05:57:17;44.10;38.70;25.40
50589;PMS7003;36547;50.514;30.840;2024-02-21T05:58:20;44.40;38.00;24.60
50589;PMS7003;36547;50.514;30.840;2024-02-21T05:59:22;41.30;35.80;23.80
50589;PMS7003;36547;50.514;30.840;2024-02-21T06:00:24;45.60;40.10;24.80
50589;PMS7003;36547;50.514;30.840;2024-02-21T06:01:26;46.60;39.70;25.10
50589;PMS7003;36547;50.514;30.840;2024-02-21T06:02:29;46.20;38.70;25.90
50589;PMS7003;36547;50.514;30.840;2024-02-21T06:03:31;12.89;10.11;0.00
50589;PMS7003;36547;50.514;30.840;2024-02-21T06:04:33;51.33;43.78;27.44
50589;PMS7003;36547;50.514;30.840;2024-02-21T06:05:38;48.00;42.44;27.67
50589;PMS7003;36547;50.514;30.840;2024-02-21T06:06:41;55.20;46.10;29.20
50589;PMS7003;36547;50.514;30.840;2024-02-21T06:07:43;51.56;43.11;29.11
50589;PMS7003;36547;50.514;30.840;2024-02-21T06:08:45;56.60;46.10;30.10
50589;PMS7003;36547;50.514;30.840;2024-02-21T06:09:47;60.33;48.11;30.44